Time;durP1;ratioP1;P1;durP2;ratioP2;P2;SDS_P1;SDS_P2;PMS_P1;PMS_P2;Temp;Humidity;BMP_temperature;BMP_pressure;BME280_temperature;BME280_humidity;BME280_pressure;Samples;Min_cycle;Max_cycle;Signal;HPM_P1;HPM_P2
2022/05/27 00:01:19;;;;;;;2.35;0.40;;;;;;;15.70;52.87;98089.56;9978066;29;20406;-77
2022/05/27 00:07:40;;;;;;;3.28;0.40;;;;;;;15.66;53.16;98080.94;9987253;29;20530;-77
2022/05/27 00:13:35;;;;;;;1.08;0.38;;;;;;;15.62;53.62;98085.59;9996912;29;20046;-77
2022/05/27 00:20:03;;;;;;;1.70;0.30;;;;;;;15.57;54.08;98070.56;9986457;29;20046;-77
2022/05/27 00:26:00;;;;;;;2.15;0.30;;;;;;;15.54;54.09;98066.19;9986798;29;20058;-77
2022/05/27 00:31:49;;;;;;;1.73;0.40;;;;;;;15.50;53.58;98062.41;9977648;29;20498;-78
2022/05/27 00:38:20;;;;;;;1.92;0.30;;;;;;;15.47;54.21;98061.59;9978151;29;20125;-78
2022/05/27 00:43:41;;;;;;;1.60;0.30;;;;;;;15.54;54.19;98054.94;9984237;29;20076;-78
2022/05/27 01:05:20;;;;;;;2.25;0.50;;;;;;;15.45;54.36;98036.16;9994584;29;20393;-78
2022/05/27 01:11:02;;;;;;;1.98;0.40;;;;;;;15.35;54.73;98041.97;9995520;29;20454;-78
2022/05/27 01:16:31;;;;;;;1.77;0.40;;;;;;;15.20;55.14;98031.31;9995964;29;20052;-78
2022/05/27 01:31:52;;;;;;;1.08;0.70;;;;;;;14.86;55.79;98011.22;9954480;29;20055;-78
2022/05/27 01:38:21;;;;;;;1.77;0.55;;;;;;;14.77;56.06;98005.78;9945169;29;20062;-78
2022/05/27 01:51:41;;;;;;;1.20;0.40;;;;;;;14.70;56.56;97992.75;9992624;29;20059;-78
2022/05/27 01:58:12;;;;;;;1.63;0.50;;;;;;;14.66;57.01;98004.47;9985481;29;20058;-77
2022/05/27 02:03:39;;;;;;;1.50;0.40;;;;;;;14.66;57.28;97992.50;10006145;29;20110;-77
2022/05/27 02:25:15;;;;;;;2.53;0.40;;;;;;;14.54;56.96;97965.19;9956867;29;20058;-79
2022/05/27 02:31:08;;;;;;;2.78;0.50;;;;;;;14.53;57.18;97958.13;9949208;29;20110;-79
2022/05/27 02:37:04;;;;;;;2.13;0.65;;;;;;;14.55;57.31;97958.22;9939368;29;20063;-79
2022/05/27 02:42:56;;;;;;;2.38;0.43;;;;;;;14.57;57.29;97963.22;9934669;29;20114;-79
2022/05/27 03:04:50;;;;;;;1.17;0.47;;;;;;;14.40;57.45;97941.94;9841229;29;20044;-78
2022/05/27 03:11:09;;;;;;;2.05;0.40;;;;;;;14.33;57.71;97937.31;9826757;30;20052;-79
2022/05/27 03:16:52;;;;;;;1.80;0.60;;;;;;;14.29;57.81;97934.28;9846166;30;20060;-80
2022/05/27 03:22:15;;;;;;;1.77;0.43;;;;;;;14.33;57.92;97928.91;9848806;29;20066;-81
2022/05/27 03:27:53;;;;;;;1.53;0.40;;;;;;;14.35;57.76;97933.88;9965574;29;20047;-79
2022/05/27 03:33:31;;;;;;;1.50;0.40;;;;;;;14.40;57.76;97930.69;9961254;29;20043;-80
2022/05/27 03:39:12;;;;;;;2.20;0.50;;;;;;;14.46;57.97;97928.25;10014088;29;20046;-78
2022/05/27 03:44:34;;;;;;;2.00;0.65;;;;;;;14.53;57.83;97921.63;9988429;29;20046;-77
2022/05/27 03:49:57;;;;;;;2.13;0.40;;;;;;;14.60;57.77;97906.56;9985929;29;20042;-77
2022/05/27 03:55:26;;;;;;;2.37;0.63;;;;;;;14.71;57.51;97909.91;9973081;29;20462;-76
2022/05/27 04:01:48;;;;;;;1.40;0.40;;;;;;;14.97;57.12;97888.13;9994981;29;20054;-77
2022/05/27 04:07:12;;;;;;;1.58;0.47;;;;;;;15.07;56.75;97902.69;10015245;29;20122;-77
2022/05/27 04:13:02;;;;;;;1.88;0.50;;;;;;;15.01;56.74;97894.66;9985788;29;20054;-76
2022/05/27 04:18:23;;;;;;;2.47;0.63;;;;;;;15.04;56.68;97896.22;9995107;29;20482;-76
2022/05/27 04:23:46;;;;;;;0.95;0.40;;;;;;;15.11;56.87;97898.00;9984003;29;20113;-76
2022/05/27 04:29:42;;;;;;;1.70;0.75;;;;;;;15.24;56.64;97882.47;10839497;24;20031;31
2022/05/27 04:35:04;;;;;;;4.72;0.50;;;;;;;15.48;56.49;97883.00;9879497;30;20492;-78
2022/05/27 04:40:26;;;;;;;1.45;0.45;;;;;;;15.72;55.66;97878.59;9859990;30;20055;-77
2022/05/27 04:45:51;;;;;;;2.30;0.52;;;;;;;15.89;55.25;97885.78;9891578;30;20035;-79
2022/05/27 04:58:03;;;;;;;1.67;0.60;;;;;;;16.59;54.37;97884.13;10000827;29;20064;-77
2022/05/27 05:03:24;;;;;;;2.25;0.50;;;;;;;16.91;53.45;97875.75;9979319;29;20050;-77
2022/05/27 05:09:20;;;;;;;2.40;0.45;;;;;;;16.91;52.78;97872.94;9997951;29;20066;-79
2022/05/27 05:14:41;;;;;;;1.90;0.40;;;;;;;17.20;52.26;97872.81;9971760;29;20062;-76
2022/05/27 05:20:11;;;;;;;2.22;0.40;;;;;;;17.44;51.92;97882.31;9959992;29;20466;-76
2022/05/27 05:25:33;;;;;;;3.50;1.13;;;;;;;17.72;51.41;97867.97;9955148;29;20563;-76
2022/05/27 05:30:54;;;;;;;2.30;0.32;;;;;;;18.33;50.42;97872.50;9970238;29;20059;-77
2022/05/27 05:36:15;;;;;;;2.53;0.57;;;;;;;18.42;49.63;97875.00;9957755;29;20486;-77
2022/05/27 05:41:37;;;;;;;2.75;0.50;;;;;;;18.30;49.47;97874.53;9996801;29;20042;-76
2022/05/27 05:46:59;;;;;;;2.38;0.40;;;;;;;18.18;49.40;97877.63;9983859;29;20094;-77
2022/05/27 05:52:20;;;;;;;4.53;0.50;;;;;;;18.31;49.23;97868.25;10009389;29;20489;-77
2022/05/27 05:57:42;;;;;;;3.75;0.60;;;;;;;18.44;48.87;97863.09;9995163;29;20049;-79
2022/05/27 06:03:03;;;;;;;3.15;0.68;;;;;;;18.52;48.72;97861.25;9996090;29;20046;-77
2022/05/27 06:08:23;;;;;;;2.78;0.43;;;;;;;18.73;48.88;97867.75;9994420;29;20045;-77
2022/05/27 06:13:44;;;;;;;3.35;0.70;;;;;;;19.19;47.83;97873.63;9996101;29;20046;-77
2022/05/27 06:19:05;;;;;;;8.32;0.63;;;;;;;19.75;47.55;97877.00;10008737;29;20084;-76
2022/05/27 06:24:26;;;;;;;2.47;0.47;;;;;;;20.19;45.98;97869.97;9995616;29;20084;-77
2022/05/27 06:35:26;;;;;;;6.35;0.60;;;;;;;21.27;44.48;97872.50;10010708;29;20409;-77
2022/05/27 06:40:46;;;;;;;3.00;0.52;;;;;;;22.40;42.74;97868.97;10007994;29;20056;-76
2022/05/27 06:46:07;;;;;;;3.00;0.50;;;;;;;22.20;41.51;97874.91;10021347;29;20505;-76
2022/05/27 06:51:29;;;;;;;3.65;0.60;;;;;;;21.92;41.05;97863.56;10007990;29;20110;-77
2022/05/27 06:56:52;;;;;;;5.35;0.80;;;;;;;21.53;41.58;97863.97;10020947;29;20062;-77
2022/05/27 07:02:14;;;;;;;5.72;0.60;;;;;;;21.63;41.34;97855.72;10007585;29;20473;-79
2022/05/27 07:07:35;;;;;;;2.38;0.50;;;;;;;22.22;41.97;97871.41;9994524;29;20049;-77
2022/05/27 07:12:59;;;;;;;3.05;0.75;;;;;;;23.21;40.07;97872.84;9980957;29;20054;-77
2022/05/27 07:18:20;;;;;;;3.22;0.57;;;;;;;24.87;38.32;97853.50;10007237;29;20049;-76
2022/05/27 07:23:40;;;;;;;3.58;0.50;;;;;;;26.75;33.27;97859.56;10006410;29;20057;-80
2022/05/27 07:29:01;;;;;;;3.60;0.60;;;;;;;26.35;32.88;97852.16;9993771;29;20057;-78
2022/05/27 07:34:22;;;;;;;2.53;0.50;;;;;;;25.59;33.63;97855.78;9993610;29;20397;-77
2022/05/27 07:39:43;;;;;;;2.95;0.57;;;;;;;25.86;33.61;97857.47;9993810;29;20486;-78
2022/05/27 07:45:04;;;;;;;3.38;0.90;;;;;;;31.39;30.20;97857.88;10006410;29;20103;-80
2022/05/27 07:50:25;;;;;;;;;;;;;;;37.08;20.24;97856.81;9994155;29;20401;-82
2022/05/27 07:55:46;;;;;;;2.97;0.40;;;;;;;40.85;16.33;97875.19;9993414;29;19931;-84
2022/05/27 08:01:08;;;;;;;3.10;0.40;;;;;;;41.19;15.08;97855.78;9968259;29;20485;-82
2022/05/27 08:06:29;;;;;;;2.20;0.40;;;;;;;44.14;13.33;97869.06;9981271;29;20105;-82
2022/05/27 08:11:52;;;;;;;1.75;0.40;;;;;;;44.09;11.96;97856.13;9980835;29;20050;-81
2022/05/27 08:17:14;;;;;;;2.65;0.50;;;;;;;44.97;11.03;97842.78;10005329;29;20049;-82
2022/05/27 08:22:38;;;;;;;1.27;0.30;;;;;;;44.96;11.11;97841.38;9961947;29;20050;-81
2022/05/27 08:28:06;;;;;;;;;;;;;;;42.95;11.57;97842.81;9951195;29;20648;-81
2022/05/27 08:38:01;;;;;;;3.42;0.43;;;;;;;37.56;15.91;97820.84;10022945;29;19924;-81
2022/05/27 08:39:11;;;;;;;3.03;0.47;;;;;;;34.29;17.87;97855.97;10030277;29;20047;-81
2022/05/27 08:44:49;;;;;;;3.08;0.50;;;;;;;29.52;22.89;97845.94;10024696;29;20609;-80
2022/05/27 08:50:18;;;;;;;2.75;0.40;;;;;;;26.48;26.98;97830.78;10036571;29;20057;-81
2022/05/27 09:01:27;;;;;;;1.35;0.30;;;;;;;23.26;32.40;97837.38;10028621;29;20481;-78
2022/05/27 09:06:50;;;;;;;2.03;0.30;;;;;;;22.56;33.99;97837.31;10023360;29;20064;-78
2022/05/27 09:12:10;;;;;;;2.67;0.38;;;;;;;22.02;35.99;97826.13;10010826;29;20512;-79
2022/05/27 09:17:44;;;;;;;3.50;0.32;;;;;;;21.53;37.83;97824.22;10024715;29;20413;-80
2022/05/27 09:23:34;;;;;;;2.47;0.38;;;;;;;21.41;38.02;97831.00;9999464;29;20042;-79
2022/05/27 09:29:21;;;;;;;2.17;0.30;;;;;;;21.07;38.84;97821.53;9997751;29;20446;-82
2022/05/27 09:34:43;;;;;;;4.80;0.55;;;;;;;20.64;39.22;97825.28;9997037;29;20118;-80
2022/05/27 09:40:17;;;;;;;3.80;0.50;;;;;;;20.41;40.58;97823.88;10010465;29;20042;-79
2022/05/27 09:45:37;;;;;;;3.33;0.38;;;;;;;20.23;41.11;97821.91;9985346;29;20046;-81
2022/05/27 09:51:00;;;;;;;1.88;0.40;;;;;;;20.44;41.20;97814.78;9996907;29;20054;-80
2022/05/27 09:56:43;;;;;;;1.58;0.32;;;;;;;20.58;41.67;97814.50;9984208;29;20066;-80
2022/05/27 10:02:27;;;;;;;2.28;0.38;;;;;;;20.71;42.05;97807.78;9984462;29;20118;-81
2022/05/27 10:07:52;;;;;;;4.00;0.40;;;;;;;21.41;41.75;97804.72;9996382;29;20110;-77
2022/05/27 10:13:18;;;;;;;3.50;0.40;;;;;;;22.56;40.43;97806.75;9996188;29;20053;-77
2022/05/27 10:18:40;;;;;;;2.15;0.30;;;;;;;23.30;38.88;97800.41;9996803;29;20059;-77
2022/05/27 10:24:31;;;;;;;2.50;0.40;;;;;;;23.51;38.92;97812.88;9983184;29;20450;-78
2022/05/27 10:29:54;;;;;;;4.00;0.35;;;;;;;22.95;39.24;97810.41;10003145;29;20516;-76
2022/05/27 10:35:25;;;;;;;5.22;0.40;;;;;;;21.83;41.14;97802.25;9995667;29;20481;-77
2022/05/27 10:40:48;;;;;;;2.05;0.52;;;;;;;21.10;41.60;97800.34;10007733;29;20098;-76
2022/05/27 10:46:13;;;;;;;4.50;0.43;;;;;;;20.56;42.85;97798.16;9994654;29;20046;-76
2022/05/27 10:52:05;;;;;;;2.78;0.40;;;;;;;20.18;44.22;97797.69;9995815;29;20057;-77
2022/05/27 11:03:52;;;;;;;;;;;;;;;20.11;46.32;97790.38;10021320;29;20085;-85
2022/05/27 11:09:20;;;;;;;3.70;0.52;;;;;;;20.47;45.03;97790.06;9994077;29;19928;-82
2022/05/27 11:15:12;;;;;;;3.65;0.50;;;;;;;20.36;45.26;97783.31;9994028;29;20050;-78
2022/05/27 11:21:01;;;;;;;3.88;0.60;;;;;;;20.70;44.59;97775.13;9985864;29;20054;-81
2022/05/27 11:26:37;;;;;;;1.40;0.40;;;;;;;21.17;45.36;97767.16;10006349;29;20053;-90
2022/05/27 11:32:24;;;;;;;1.58;0.50;;;;;;;22.65;41.51;97758.56;9993234;29;20046;-79
2022/05/27 11:38:16;;;;;;;1.30;0.30;;;;;;;24.44;39.39;97753.78;10002935;29;20053;-81
2022/05/27 11:43:47;;;;;;;1.98;0.40;;;;;;;25.24;37.13;97764.00;10006096;29;20489;-78
2022/05/27 11:49:20;;;;;;;5.13;0.50;;;;;;;24.36;37.01;97764.38;10006771;29;20049;-77
2022/05/27 11:54:58;;;;;;;2.25;0.35;;;;;;;22.79;38.17;97775.94;10005943;29;20090;-81
2022/05/27 12:00:19;;;;;;;3.03;0.50;;;;;;;21.70;40.13;97774.91;10001071;29;20050;-80
2022/05/27 12:05:54;;;;;;;0.38;0.17;;;;;;;20.75;43.16;97807.91;9987762;29;20078;-78
2022/05/27 12:11:24;;;;;;;1.25;0.13;;;;;;;19.63;45.81;97812.94;10000251;29;20488;-81
2022/05/27 12:16:48;;;;;;;0.35;0.10;;;;;;;18.97;47.87;97820.53;9998474;29;20493;-78
2022/05/27 12:22:21;;;;;;;1.00;0.10;;;;;;;18.78;47.07;97824.81;9986519;29;20050;-83
2022/05/27 12:27:42;;;;;;;0.40;0.10;;;;;;;18.31;49.62;97836.44;9985518;29;20493;-83
2022/05/27 12:33:02;;;;;;;1.20;0.00;;;;;;;17.88;50.01;97836.88;9987015;29;20050;-86
2022/05/27 12:38:31;;;;;;;0.35;0.10;;;;;;;17.51;51.86;97840.97;9987538;29;20052;-84
2022/05/27 12:44:17;;;;;;;0.32;0.00;;;;;;;17.35;53.30;97843.09;9986901;29;20102;-83
2022/05/27 12:49:39;;;;;;;0.82;0.00;;;;;;;17.08;53.84;97827.91;9976889;29;20125;-82
2022/05/27 12:55:01;;;;;;;4.18;0.13;;;;;;;16.99;53.67;97836.63;10026945;29;20065;-84
2022/05/27 13:06:19;;;;;;;0.30;0.10;;;;;;;17.10;56.19;97839.25;10024803;29;20062;-82
2022/05/27 13:11:42;;;;;;;1.65;0.20;;;;;;;17.13;54.78;97834.44;10055956;29;20053;-83
2022/05/27 13:17:08;;;;;;;1.02;0.20;;;;;;;17.08;55.39;97835.59;10036557;29;20477;-81
2022/05/27 13:22:34;;;;;;;0.60;0.20;;;;;;;16.99;56.38;97850.75;10036175;29;20042;-76
2022/05/27 13:27:59;;;;;;;1.50;0.28;;;;;;;16.83;56.51;97847.91;10035891;29;20041;-87
2022/05/27 13:33:29;;;;;;;0.90;0.20;;;;;;;17.24;56.41;97841.94;10023557;29;20507;-76
2022/05/27 13:39:05;;;;;;;1.38;0.32;;;;;;;17.14;56.00;97844.34;10023406;29;20053;-76
2022/05/27 13:44:26;;;;;;;2.33;0.30;;;;;;;16.95;56.30;97834.34;10023383;29;20045;-76
2022/05/27 13:49:48;;;;;;;2.00;0.40;;;;;;;16.70;57.51;97829.75;10035224;29;20052;-75
2022/05/27 13:55:14;;;;;;;0.80;0.30;;;;;;;16.53;57.92;97842.34;10007217;29;20487;-77
2022/05/27 14:00:38;;;;;;;5.22;0.40;;;;;;;16.41;57.95;97832.59;10025126;29;20109;-75
2022/05/27 14:06:00;;;;;;;;;;;;;;;16.39;60.26;97829.69;9984232;29;20050;-77
2022/05/27 14:11:28;;;;;;;1.40;0.50;;;;;;;16.48;58.85;97832.22;10008045;29;19954;-76
2022/05/27 14:16:49;;;;;;;1.35;0.52;;;;;;;16.45;59.26;97819.41;10034277;29;20056;-76
2022/05/27 14:22:40;;;;;;;2.92;0.93;;;;;;;16.44;59.01;97815.16;10021207;29;20500;-75
2022/05/27 14:28:26;;;;;;;6.75;1.50;;;;;;;16.58;59.09;97809.41;10025993;29;20404;-76
2022/05/27 14:33:49;;;;;;;3.70;0.93;;;;;;;16.47;58.84;97796.25;10046434;29;20046;-76
2022/05/27 14:39:11;;;;;;;3.65;0.65;;;;;;;16.84;59.24;97798.63;10020818;29;20061;-76
2022/05/27 14:44:40;;;;;;;2.67;0.45;;;;;;;16.77;58.72;97782.81;10019855;29;20045;-77
2022/05/27 14:50:14;;;;;;;3.50;0.43;;;;;;;16.95;58.89;97794.16;9992429;29;20125;-88
2022/05/27 14:55:35;;;;;;;;;;;;;;;17.37;58.38;97789.59;9996414;29;20084;-84
2022/05/27 15:00:56;;;;;;;2.63;0.40;;;;;;;17.37;58.03;97789.59;9994441;29;19924;-76
2022/05/27 15:06:20;;;;;;;0.95;0.30;;;;;;;17.53;57.81;97781.06;9982207;29;20046;-78
2022/05/27 15:11:41;;;;;;;1.52;0.50;;;;;;;17.64;57.45;97786.47;9982208;29;20051;-77
2022/05/27 15:17:04;;;;;;;2.78;0.30;;;;;;;17.74;57.10;97772.06;9981479;29;20515;-76
2022/05/27 15:22:25;;;;;;;1.20;0.40;;;;;;;17.97;57.12;97785.72;9994631;29;20082;-77
2022/05/27 15:33:53;;;;;;;2.22;0.35;;;;;;;17.94;56.15;97769.31;9985053;29;20454;-76
2022/05/27 15:39:14;;;;;;;1.35;0.30;;;;;;;17.91;56.09;97745.22;9981868;29;20106;-78
2022/05/27 15:44:35;;;;;;;0.85;0.30;;;;;;;17.83;56.02;97739.97;9993566;29;20069;-76
2022/05/27 15:49:56;;;;;;;1.55;0.28;;;;;;;17.78;55.76;97735.53;9981195;29;20050;-80
2022/05/27 15:55:18;;;;;;;1.63;0.30;;;;;;;17.77;55.73;97733.38;9982072;29;20142;-83
2022/05/27 16:00:39;;;;;;;1.02;0.30;;;;;;;17.78;55.59;97732.72;9981306;29;20085;-80
2022/05/27 16:06:00;;;;;;;1.50;0.30;;;;;;;17.84;55.51;97735.03;9981030;29;20049;-80
2022/05/27 16:11:21;;;;;;;1.48;0.47;;;;;;;17.87;55.59;97745.78;9993542;29;20042;-81
2022/05/27 16:22:22;;;;;;;4.82;0.40;;;;;;;17.79;55.45;97728.53;9985356;29;20474;-83
2022/05/27 16:27:43;;;;;;;1.75;0.70;;;;;;;17.91;55.33;97720.53;9980427;29;20046;-80
2022/05/27 16:33:04;;;;;;;1.73;0.47;;;;;;;17.92;54.91;97730.44;9979749;29;20405;-83
2022/05/27 16:38:31;;;;;;;1.80;0.60;;;;;;;17.97;54.94;97717.94;9981805;29;20374;-77
2022/05/27 16:43:53;;;;;;;1.25;0.40;;;;;;;17.87;54.69;97728.13;9983945;29;20485;-79
2022/05/27 16:49:15;;;;;;;1.27;0.40;;;;;;;17.35;55.15;97733.81;9986509;29;20496;-78
2022/05/27 16:54:36;;;;;;;0.85;0.40;;;;;;;16.98;56.41;97730.84;9999141;29;20548;-77
2022/05/27 16:59:56;;;;;;;1.05;0.40;;;;;;;16.76;56.30;97725.72;9999272;29;20049;-76
2022/05/27 17:05:45;;;;;;;2.80;0.50;;;;;;;16.61;56.63;97729.25;9996807;29;20493;-75
2022/05/27 17:11:06;;;;;;;1.38;0.35;;;;;;;16.49;57.04;97737.16;9998743;29;20098;-75
2022/05/27 17:16:27;;;;;;;1.05;0.40;;;;;;;16.71;57.42;97743.09;9986333;29;20050;-75
2022/05/27 17:21:47;;;;;;;1.48;0.40;;;;;;;16.81;57.54;97732.25;9998356;29;20042;-75
2022/05/27 17:27:36;;;;;;;1.05;0.38;;;;;;;16.59;57.21;97743.25;9996983;29;20053;-82
2022/05/27 17:33:19;;;;;;;0.90;0.30;;;;;;;16.38;57.79;97749.34;10035318;24;20054;-79
2022/05/27 17:39:09;;;;;;;2.88;0.60;;;;;;;16.21;58.87;97743.00;9964001;29;20063;-81
2022/05/27 17:45:10;;;;;;;1.92;0.50;;;;;;;16.08;58.95;97726.91;10162718;24;20054;-77
2022/05/27 18:22:21;;;;;;;1.33;0.57;;;;;;;15.85;59.93;97742.03;9987142;29;20057;-75
2022/05/27 18:35:44;;;;;;;2.97;0.80;;;;;;;15.89;58.34;97753.47;9988008;29;20050;-75
2022/05/27 18:42:45;;;;;;;2.17;0.70;;;;;;;15.61;57.93;97750.03;9997439;29;20068;-76
2022/05/27 18:49:09;;;;;;;4.38;0.85;;;;;;;15.34;57.91;97748.00;9984403;29;20133;-75
2022/05/27 18:55:08;;;;;;;;;;;;;;;15.20;57.87;97755.03;9985637;29;20050;-75
2022/05/27 19:01:04;;;;;;;5.32;0.90;;;;;;;15.02;58.03;97754.84;9985102;29;19925;-75
2022/05/27 19:06:56;;;;;;;2.08;0.88;;;;;;;14.90;57.78;97763.41;9994252;29;20058;-75
2022/05/27 19:13:28;;;;;;;3.78;0.90;;;;;;;14.88;57.61;97771.72;9996569;29;20050;-75
2022/05/27 19:27:26;;;;;;;3.08;0.77;;;;;;;14.72;57.05;97784.94;9985313;29;20057;-75
2022/05/27 19:33:21;;;;;;;3.70;1.25;;;;;;;14.59;57.22;97784.31;9984581;29;20496;-74
2022/05/27 19:40:15;;;;;;;5.35;1.20;;;;;;;14.42;56.97;97790.41;9983337;29;20058;-74
2022/05/27 19:45:38;;;;;;;4.35;1.20;;;;;;;14.27;57.10;97788.16;9984112;29;20062;-75
2022/05/27 19:52:40;;;;;;;5.43;1.25;;;;;;;14.09;57.32;97801.97;9983205;29;20058;-75
2022/05/27 20:06:01;;;;;;;3.28;1.10;;;;;;;13.73;57.71;97817.50;9984639;29;20047;-74
2022/05/27 20:11:52;;;;;;;3.92;1.08;;;;;;;13.64;57.59;97809.97;9965785;29;20054;-75
2022/05/27 20:17:53;;;;;;;3.67;1.23;;;;;;;13.54;57.58;97806.59;9985349;29;20059;-75
2022/05/27 20:23:49;;;;;;;5.97;0.75;;;;;;;13.51;57.57;97819.03;9978418;29;20051;-75
2022/05/27 20:29:45;;;;;;;6.10;1.15;;;;;;;13.44;56.94;97821.50;10000652;29;20051;-75
2022/05/27 20:43:02;;;;;;;3.78;0.82;;;;;;;13.25;57.05;97821.78;9999980;29;20062;-75
2022/05/27 20:49:00;;;;;;;4.32;1.10;;;;;;;13.17;56.92;97821.28;9992745;29;20058;-74
2022/05/27 20:55:25;;;;;;;3.53;0.98;;;;;;;13.09;56.88;97826.41;9988075;29;20050;-75
2022/05/27 21:01:21;;;;;;;5.63;0.95;;;;;;;13.04;56.83;97828.25;9988568;29;20062;-75
2022/05/27 21:24:51;;;;;;;5.55;1.67;;;;;;;12.84;55.57;97822.19;9985331;29;20054;-75
2022/05/27 21:31:16;;;;;;;3.83;1.02;;;;;;;12.89;55.02;97832.28;9987563;29;20046;-75
2022/05/27 21:36:41;;;;;;;7.15;1.20;;;;;;;12.92;54.94;97823.97;10000614;29;20183;-75
2022/05/27 21:42:39;;;;;;;7.53;0.80;;;;;;;12.90;54.96;97833.72;9994763;29;20050;-75
2022/05/27 21:48:28;;;;;;;4.80;1.30;;;;;;;12.88;54.86;97828.00;9987354;29;20055;-75
2022/05/27 21:54:20;;;;;;;4.00;0.90;;;;;;;12.92;54.88;97824.72;9976932;29;20527;-75
2022/05/27 22:00:19;;;;;;;6.47;1.10;;;;;;;12.89;54.23;97823.88;9986141;29;20062;-75
2022/05/27 22:06:47;;;;;;;4.95;0.77;;;;;;;12.87;53.74;97812.53;9977614;29;20054;-75
2022/05/27 22:12:45;;;;;;;5.63;0.90;;;;;;;12.89;53.95;97823.88;9985545;29;19925;-74
2022/05/27 22:18:39;;;;;;;2.85;0.77;;;;;;;12.89;53.35;97815.47;9998592;29;20452;-74
2022/05/27 22:24:36;;;;;;;5.30;1.02;;;;;;;12.84;53.01;97813.78;9986321;29;20051;-75
2022/05/27 22:31:37;;;;;;;6.53;0.98;;;;;;;12.83;53.12;97815.09;9985052;29;20055;-75
2022/05/27 22:37:32;;;;;;;4.72;1.02;;;;;;;12.74;53.12;97812.41;9995256;29;20111;-75
2022/05/27 22:43:01;;;;;;;7.00;0.90;;;;;;;12.68;53.24;97817.66;9998372;29;20383;-75
2022/05/27 22:48:22;;;;;;;7.53;0.90;;;;;;;12.57;53.12;97808.66;9983895;29;20410;-75
2022/05/27 22:53:52;;;;;;;3.50;0.85;;;;;;;12.49;53.21;97802.56;9985261;29;20051;-74
2022/05/27 23:08:19;;;;;;;6.30;1.08;;;;;;;12.32;53.33;97803.63;9984811;29;20050;-75
2022/05/27 23:21:48;;;;;;;6.35;1.17;;;;;;;12.28;52.34;97800.59;9984300;29;20050;-75
2022/05/27 23:27:39;;;;;;;11.27;0.90;;;;;;;12.21;52.73;97789.63;9992533;29;20062;-75
2022/05/27 23:33:35;;;;;;;7.55;0.82;;;;;;;12.19;52.59;97797.91;9997544;29;20046;-75
2022/05/27 23:39:58;;;;;;;6.38;1.10;;;;;;;12.17;52.59;97790.13;9974999;29;20065;-75
2022/05/27 23:45:29;;;;;;;5.18;0.90;;;;;;;12.12;52.74;97784.84;9995630;29;20050;-75
2022/05/27 23:52:01;;;;;;;6.45;1.00;;;;;;;12.01;52.72;97784.22;9983791;29;20386;-74
2022/05/27 23:57:57;;;;;;;;;;;;;;;11.95;52.83;97785.91;9954639;29;20123;-75
